KPTB/PTB METAR and TAF weather

Enter ICAO airport designator
Station Type Date Time Source
KPTB METAR 2019/07/17 18:15 UTC NOAA

KPTB 171815Z AUTO 25008G17KT 180V270 10SM CLR 36/20 A2999 RMK AO2 T03570200


Station Type Date Time Source
KPTB Decoded METAR 2019/07/17 18:15 UTC NOAA

Petersburg, Dinwiddie County Airport, VA, United States (KPTB) 37-11N 077-31W
Jul 17, 2019 - 02:15 PM EDT / 2019.07.17 1815 UTC
Wind: from the WSW (250 degrees) at 9 MPH (8 KT) gusting to 20 MPH (17 KT) (direction variable):0
Visibility: 10 mile(s):0
Sky conditions: clear
Temperature: 96.3 F (35.7 C)
Heat index: 100.9 F (38.3 C):1
Dew Point: 68.0 F (20.0 C)
Relative Humidity: 39%
Pressure (altimeter): 29.99 in. Hg (1015 hPa)
ob: KPTB 171815Z AUTO 25008G17KT 180V270 10SM CLR 36/20 A2999 RMK AO2 T03570200
cycle: 18

Station Type Date Time Source
KPTB TAF UTC NOAA

Error!

Example: see airport list